createdAt,value
2022-09-28T00:03:18.324Z,7.7
2022-09-28T00:08:36.750Z,7.73
2022-09-28T00:13:56.371Z,7.7
2022-09-28T00:19:14.287Z,7.8
2022-09-28T00:24:34.214Z,7.87
2022-09-28T00:29:52.503Z,7.86
2022-09-28T00:35:11.970Z,7.84
2022-09-28T00:41:46.134Z,7.87
2022-09-28T00:51:10.614Z,7.9
2022-09-28T00:59:43.672Z,7.83
2022-09-28T01:01:48.123Z,7.73
2022-09-28T01:08:46.717Z,7.7
2022-09-28T01:12:25.881Z,7.67
2022-09-28T01:17:46.119Z,7.62
2022-09-28T01:23:04.837Z,7.59
2022-09-28T01:28:23.948Z,7.5
2022-09-28T01:33:43.308Z,7.43
2022-09-28T01:39:02.574Z,7.39
2022-09-28T01:44:22.171Z,7.4
2022-09-28T01:50:56.314Z,7.45
2022-09-28T01:55:00.365Z,7.49
2022-09-28T02:00:19.626Z,7.49
2022-09-28T02:05:38.396Z,7.55
2022-09-28T02:10:57.635Z,7.59
2022-09-28T02:16:17.408Z,7.6
2022-09-28T02:21:36.597Z,7.63
2022-09-28T02:26:55.563Z,7.63
2022-09-28T02:32:14.910Z,7.62
2022-09-28T02:37:34.396Z,7.63
2022-09-28T02:42:53.377Z,7.67
2022-09-28T02:48:12.675Z,7.71
2022-09-28T02:53:32.161Z,7.77
2022-09-28T02:58:52.654Z,7.74
2022-09-28T03:04:11.266Z,7.77
2022-09-28T03:09:30.275Z,7.79
2022-09-28T03:14:49.417Z,7.81
2022-09-28T03:20:08.710Z,7.86
2022-09-28T03:25:28.199Z,7.87
2022-09-28T03:30:47.449Z,7.89
2022-09-28T03:36:07.088Z,7.94
2022-09-28T03:41:25.840Z,7.94
2022-09-28T03:46:45.543Z,7.94
2022-09-28T03:52:04.718Z,7.97
2022-09-28T03:57:24.278Z,7.95
2022-09-28T04:02:44.154Z,7.98
2022-09-28T04:08:03.232Z,8.01
2022-09-28T04:13:22.371Z,8.05
2022-09-28T04:18:42.041Z,8.1
2022-09-28T04:24:01.785Z,8.07
2022-09-28T04:29:20.919Z,8.14
2022-09-28T04:34:43.849Z,8.24
2022-09-28T04:39:59.391Z,8.27
2022-09-28T04:45:18.309Z,8.31
2022-09-28T04:50:37.740Z,8.39
2022-09-28T04:55:56.782Z,8.42
2022-09-28T05:01:15.906Z,8.43
2022-09-28T05:06:35.163Z,8.43
2022-09-28T05:11:55.165Z,8.45
2022-09-28T05:17:13.567Z,8.45
2022-09-28T05:22:32.754Z,8.47
2022-09-28T05:27:51.989Z,8.46
2022-09-28T05:33:10.904Z,8.42
2022-09-28T05:38:30.553Z,8.42
2022-09-28T05:43:49.464Z,8.39
2022-09-28T05:49:34.387Z,8.32
2022-09-28T05:54:53.371Z,8.35
2022-09-28T06:00:12.297Z,8.37
2022-09-28T06:05:31.505Z,8.45
2022-09-28T06:10:51.122Z,8.58
2022-09-28T06:16:10.884Z,8.68
2022-09-28T06:21:30.591Z,8.7
2022-09-28T06:26:50.188Z,8.72
2022-09-28T06:32:09.141Z,8.77
2022-09-28T06:37:29.553Z,8.8
2022-09-28T06:42:48.938Z,8.89
2022-09-28T06:48:16.197Z,8.97
2022-09-28T06:53:26.378Z,8.99
2022-09-28T06:58:45.556Z,8.96
2022-09-28T07:04:04.928Z,8.91
2022-09-28T07:09:31.116Z,8.96
2022-09-28T07:14:47.613Z,9.04
2022-09-28T07:20:14.026Z,9.1
2022-09-28T07:25:22.626Z,9.21
2022-09-28T07:30:42.353Z,9.26
2022-09-28T07:36:01.335Z,9.35
2022-09-28T07:41:20.899Z,9.41
2022-09-28T07:46:39.679Z,9.54
2022-09-28T07:52:00.084Z,9.72
2022-09-28T07:58:34.229Z,9.64
2022-09-28T08:02:50.951Z,9.41
2022-09-28T08:07:58.433Z,9.22
2022-09-28T08:13:16.463Z,9.13
2022-09-28T08:18:35.535Z,9.06
2022-09-28T08:23:53.282Z,9.14
2022-09-28T08:29:12.618Z,9.82
2022-09-28T08:34:32.275Z,10.49
2022-09-28T08:41:06.425Z,11.65
2022-09-28T08:50:31.313Z,12.31
2022-09-28T08:55:50.859Z,12.78
2022-09-28T09:04:56.387Z,13.11
2022-09-28T09:06:29.731Z,13.41
2022-09-28T09:11:48.957Z,12.63
2022-09-28T09:17:07.895Z,11.91
2022-09-28T09:22:26.803Z,12.37
2022-09-28T09:27:45.943Z,13.21
2022-09-28T09:33:05.322Z,12.49
2022-09-28T09:38:23.493Z,11.25
2022-09-28T09:43:43.094Z,10.59
2022-09-28T09:50:17.238Z,10.95
2022-09-28T09:59:41.856Z,12.48
2022-09-28T10:05:00.399Z,13.06
2022-09-28T10:10:19.582Z,13.86
2022-09-28T10:16:53.899Z,14.26
2022-09-28T10:20:59.191Z,14.28
2022-09-28T10:29:44.250Z,13.91
2022-09-28T10:33:47.630Z,13.71
2022-09-28T10:36:55.075Z,13.6
2022-09-28T10:42:13.717Z,12.69
2022-09-28T10:47:32.493Z,11.98
2022-09-28T10:52:51.584Z,12.35
2022-09-28T10:58:10.957Z,12.68
2022-09-28T11:03:29.796Z,12.78
2022-09-28T11:08:49.879Z,12.96
2022-09-28T11:14:09.450Z,13.46
2022-09-28T11:19:37.252Z,14.09
2022-09-28T11:24:48.033Z,14.68
2022-09-28T11:30:07.260Z,15.02
2022-09-28T11:35:26.653Z,14.95
2022-09-28T11:40:45.621Z,14.64
2022-09-28T11:46:04.521Z,14.66
2022-09-28T11:51:23.851Z,14.13
2022-09-28T11:56:42.635Z,13.57
2022-09-28T12:02:01.648Z,13.02
2022-09-28T12:07:21.163Z,12.56
2022-09-28T12:12:40.303Z,12.51
2022-09-28T12:17:59.411Z,13.4
2022-09-28T12:23:18.630Z,13.98
2022-09-28T12:30:17.213Z,13.89
2022-09-28T12:34:31.863Z,13.72
2022-09-28T12:39:24.233Z,13.5
2022-09-28T12:44:35.039Z,14.01
2022-09-28T12:50:36.851Z,14.22
2022-09-28T12:55:13.309Z,14.46
2022-09-28T13:00:32.245Z,14.55
2022-09-28T13:05:51.221Z,14.8
2022-09-28T13:12:18.940Z,14.63
2022-09-28T13:16:29.938Z,13.75
2022-09-28T13:21:48.909Z,13.33
2022-09-28T13:27:08.560Z,13.57
2022-09-28T13:32:28.436Z,14.36
2022-09-28T13:39:02.557Z,14.74
2022-09-28T13:43:06.582Z,14.94
2022-09-28T13:48:25.615Z,14.26
2022-09-28T13:53:43.377Z,14.29
2022-09-28T13:59:02.584Z,13.95
2022-09-28T14:04:22.076Z,13.27
2022-09-28T14:09:42.188Z,12.99
2022-09-28T14:15:01.580Z,12.97
2022-09-28T14:21:35.773Z,13.02
2022-09-28T14:25:40.010Z,13.27
2022-09-28T14:30:59.200Z,14.18
2022-09-28T14:36:18.898Z,14.19
2022-09-28T14:41:38.417Z,14.04
2022-09-28T14:48:12.560Z,14.2
2022-09-28T14:52:18.431Z,14.2
2022-09-28T14:57:37.337Z,14.22
2022-09-28T15:02:56.313Z,13.99
2022-09-28T15:08:15.688Z,13.48
2022-09-28T15:13:34.558Z,13.13
2022-09-28T15:18:52.641Z,13.75
2022-09-28T15:24:11.391Z,14.23
2022-09-28T15:30:45.587Z,13.99
2022-09-28T15:40:10.282Z,14.12
2022-09-28T15:45:28.349Z,14.16
2022-09-28T15:50:47.264Z,13.89
2022-09-28T15:56:06.143Z,13.28
2022-09-28T16:02:40.318Z,12.68
2022-09-28T16:06:45.601Z,12.58
2022-09-28T16:12:03.844Z,12.38
2022-09-28T16:17:22.769Z,12.04
2022-09-28T16:23:56.944Z,11.73
2022-09-28T16:33:21.208Z,11.55
2022-09-28T16:38:47.425Z,11.23
2022-09-28T16:43:58.565Z,10.88
2022-09-28T16:49:16.697Z,10.61
2022-09-28T16:54:36.444Z,10.46
2022-09-28T16:59:56.386Z,10.33
2022-09-28T17:05:16.066Z,10.14
2022-09-28T17:10:45.011Z,9.85
2022-09-28T17:17:12.613Z,9.62
2022-09-28T17:21:25.004Z,9.39
2022-09-28T17:28:23.619Z,9.24
2022-09-28T17:31:53.356Z,9.27
2022-09-28T17:47:50.616Z,9.24
2022-09-28T17:58:28.399Z,8.89
2022-09-28T18:07:01.449Z,8.77
2022-09-28T18:09:06.939Z,8.63
2022-09-28T18:14:24.497Z,8.49
2022-09-28T18:19:43.974Z,8.41
2022-09-28T18:25:02.810Z,8.28
2022-09-28T18:30:21.792Z,8.1
2022-09-28T18:35:41.621Z,7.93
2022-09-28T18:41:00.025Z,7.56
2022-09-28T18:46:19.994Z,7.45
2022-09-28T18:51:39.736Z,7.38
2022-09-28T18:56:59.159Z,7.4
2022-09-28T19:03:33.328Z,7.45
2022-09-28T19:07:36.331Z,7.38
2022-09-28T19:12:55.213Z,7.48
2022-09-28T19:18:15.720Z,7.63
2022-09-28T19:23:33.970Z,7.69
2022-09-28T19:28:52.825Z,7.73
2022-09-28T19:34:21.912Z,7.63
2022-09-28T19:39:30.821Z,7.32
2022-09-28T19:44:50.394Z,7.04
2022-09-28T19:50:09.513Z,6.77
2022-09-28T19:55:29.544Z,6.57
2022-09-28T20:00:49.181Z,6.41
2022-09-28T20:07:23.336Z,6.22
2022-09-28T20:11:37.988Z,6.08
2022-09-28T20:16:48.169Z,6.01
2022-09-28T20:22:06.285Z,6.12
2022-09-28T20:27:26.300Z,6.1
2022-09-28T20:32:49.363Z,6.05
2022-09-28T20:38:04.362Z,6.08
2022-09-28T20:43:24.417Z,5.99
2022-09-28T20:49:58.564Z,5.94
2022-09-28T20:54:02.952Z,5.98
2022-09-28T21:01:01.507Z,5.92
2022-09-28T21:05:18.262Z,5.98
2022-09-28T21:18:34.536Z,6.08
2022-09-28T21:22:49.928Z,6.09
2022-09-28T21:29:48.534Z,6.16
2022-09-28T21:38:21.617Z,6.2
2022-09-28T21:41:57.188Z,6.36
2022-09-28T21:47:16.489Z,6.53
2022-09-28T21:52:35.965Z,6.74
2022-09-28T21:57:54.397Z,6.95
2022-09-28T22:03:13.092Z,7.02
2022-09-28T22:09:50.464Z,7.02
2022-09-28T22:14:03.832Z,7.12
2022-09-28T22:19:12.257Z,7.22
2022-09-28T22:24:29.978Z,7.16
2022-09-28T22:29:50.188Z,7.15
2022-09-28T22:36:24.362Z,7.15
2022-09-28T22:45:48.935Z,7.11
2022-09-28T22:54:21.991Z,7.22
2022-09-28T23:02:55.137Z,7.38
2022-09-28T23:07:03.107Z,7.45
2022-09-28T23:12:22.695Z,7.62
2022-09-28T23:17:41.167Z,7.65
2022-09-28T23:23:00.279Z,7.56
2022-09-28T23:28:19.772Z,7.6
2022-09-28T23:33:39.856Z,7.67
2022-09-28T23:38:58.999Z,7.76
2022-09-28T23:45:33.148Z,7.84
2022-09-28T23:49:39.124Z,7.74
2022-09-28T23:55:05.853Z,7.49
